Terminal Aerodrome Forecast
Issued by NWS Cleveland, OH

Home | Current Version | Previous Version | Graphics & Text | Print | Product List | Glossary Off
Versions: 1 2 3 4 5 6 7 8 9 10 11 12 13 14 15 16 17 18 19 20 21 22 23 24 25

000
FTUS41 KCLE 230759 AAA
TAFYNG
TAF AMD
KYNG 230759Z 2308/2406 22007KT 6SM -SHRA SCT015 OVC025
      TEMPO 2308/2310 5SM -SHRA BKN012
     FM231100 23010KT P6SM VCSH SCT025 OVC040
     FM231500 24014G22KT 5SM -SHRA OVC025
     FM232200 24018G26KT 3SM -SHRASN OVC012=

USA.gov is the U.S. government's official web portal to all federal, state and local government web resources and services.